KQRH

Camp Lemonier

Camp Lemonier, Djibouti
METAR KQRH 212257Z AUTO 31003KT 9000 HZ CLR 36/19 A2967 RMK AO2 SLP034 WND DATA ESTMD T03580193
Observed Flight Rules
Jun-21 @ 22:57 UTC (60 minutes ago) Visual Flight Rules
Wind Visibility Clouds Conditions
310° at 3 knots 8,996 meters
  • Clear skies
  • Haze
Temperatures Readings
Current 36°C / 97°F
Dewpoint 19°C / 66°F
Humidity 37%
Altimeter 29.67" Hg
Pressure 1003.4 hPa
METAR KQRH 212257Z AUTO 31003KT 9000 HZ CLR 36/19 A2967 RMK AO2 SLP034 WND DATA ESTMD T03580193
Observed Flight Rules
Jun-21 @ 22:57 UTC
(60 minutes ago)
VFR
Wind Visibility
310° at 3 knots 8,996 meters
Clouds
  • Clear skies
Conditions
  • Haze
Temperature Dewpoint
36°C / 97°F 19°C / 66°F
Humidity Altimeter Pressure
37% 29.67" Hg 1003.4 hPa